sensor_id;sensor_type;location;lat;lon;timestamp;pressure;altitude;pressure_sealevel;temperature;humidity
70217;BME280;65567;55.684;37.570;2023-11-19T00:00:09;100037.97;;;-1.41;49.48
70217;BME280;65567;55.684;37.570;2023-11-19T00:02:41;100038.91;;;-1.35;49.05
70217;BME280;65567;55.684;37.570;2023-11-19T00:05:13;100035.34;;;-1.46;48.70
70217;BME280;65567;55.684;37.570;2023-11-19T00:07:40;100043.84;;;-1.55;48.55
70217;BME280;65567;55.684;37.570;2023-11-19T00:10:18;100036.81;;;-1.70;48.89
70217;BME280;65567;55.684;37.570;2023-11-19T00:12:45;100030.63;;;-1.84;49.08
70217;BME280;65567;55.684;37.570;2023-11-19T00:15:18;100029.72;;;-1.88;49.88
70217;BME280;65567;55.684;37.570;2023-11-19T00:17:45;100030.69;;;-1.79;49.66
70217;BME280;65567;55.684;37.570;2023-11-19T00:20:16;100030.66;;;-1.83;50.55
70217;BME280;65567;55.684;37.570;2023-11-19T00:22:43;100031.56;;;-1.79;49.58
70217;BME280;65567;55.684;37.570;2023-11-19T00:25:09;100021.00;;;-1.99;49.30
70217;BME280;65567;55.684;37.570;2023-11-19T00:27:35;100029.41;;;-2.11;49.54
70217;BME280;65567;55.684;37.570;2023-11-19T00:30:06;100026.50;;;-2.36;50.07
70217;BME280;65567;55.684;37.570;2023-11-19T00:32:33;100020.56;;;-2.33;50.20
70217;BME280;65567;55.684;37.570;2023-11-19T00:34:59;100027.38;;;-2.37;51.39
70217;BME280;65567;55.684;37.570;2023-11-19T00:37:25;100020.69;;;-2.24;50.37
70217;BME280;65567;55.684;37.570;2023-11-19T00:39:51;100017.19;;;-2.30;50.38
70217;BME280;65567;55.684;37.570;2023-11-19T00:42:21;100016.19;;;-2.42;50.45
70217;BME280;65567;55.684;37.570;2023-11-19T00:44:47;100020.22;;;-2.56;50.47
70217;BME280;65567;55.684;37.570;2023-11-19T00:47:13;100021.78;;;-2.68;50.63
70217;BME280;65567;55.684;37.570;2023-11-19T00:49:39;100012.25;;;-2.73;50.85
70217;BME280;65567;55.684;37.570;2023-11-19T00:52:05;100006.25;;;-2.77;50.76
70217;BME280;65567;55.684;37.570;2023-11-19T00:54:32;100002.66;;;-2.85;50.99
70217;BME280;65567;55.684;37.570;2023-11-19T00:56:58;100000.88;;;-2.92;51.32
70217;BME280;65567;55.684;37.570;2023-11-19T00:59:24;100003.31;;;-2.99;51.39
70217;BME280;65567;55.684;37.570;2023-11-19T01:01:52;100003.44;;;-2.91;51.39
70217;BME280;65567;55.684;37.570;2023-11-19T01:04:17;100000.78;;;-2.95;51.20
70217;BME280;65567;55.684;37.570;2023-11-19T01:06:43;100000.66;;;-3.05;51.47
70217;BME280;65567;55.684;37.570;2023-11-19T01:09:09;100007.38;;;-3.11;51.66
70217;BME280;65567;55.684;37.570;2023-11-19T01:11:36;99996.16;;;-3.18;51.87
70217;BME280;65567;55.684;37.570;2023-11-19T01:14:02;99995.22;;;-3.23;52.00
70217;BME280;65567;55.684;37.570;2023-11-19T01:16:28;99990.88;;;-3.27;52.13
70217;BME280;65567;55.684;37.570;2023-11-19T01:18:54;99983.13;;;-3.30;52.22
70217;BME280;65567;55.684;37.570;2023-11-19T01:21:21;99978.00;;;-3.30;52.31
70217;BME280;65567;55.684;37.570;2023-11-19T01:23:47;99959.75;;;-3.49;52.61
70217;BME280;65567;55.684;37.570;2023-11-19T01:26:13;99978.72;;;-3.39;52.56
70217;BME280;65567;55.684;37.570;2023-11-19T01:28:40;99977.72;;;-3.46;52.82
70217;BME280;65567;55.684;37.570;2023-11-19T01:31:15;99961.47;;;-3.50;52.80
70217;BME280;65567;55.684;37.570;2023-11-19T01:33:41;99976.88;;;-3.46;52.85
70217;BME280;65567;55.684;37.570;2023-11-19T01:36:07;99971.72;;;-3.48;53.12
70217;BME280;65567;55.684;37.570;2023-11-19T01:38:34;99978.50;;;-3.50;52.99
70217;BME280;65567;55.684;37.570;2023-11-19T01:41:00;99977.69;;;-3.47;53.06
70217;BME280;65567;55.684;37.570;2023-11-19T01:43:36;99975.94;;;-3.50;53.22
70217;BME280;65567;55.684;37.570;2023-11-19T01:46:05;99984.44;;;-3.53;53.29
70217;BME280;65567;55.684;37.570;2023-11-19T01:48:39;99974.19;;;-3.53;53.39
70217;BME280;65567;55.684;37.570;2023-11-19T01:51:07;99969.84;;;-3.57;53.46
70217;BME280;65567;55.684;37.570;2023-11-19T01:53:35;99963.84;;;-3.59;53.48
70217;BME280;65567;55.684;37.570;2023-11-19T01:56:03;99965.53;;;-3.59;53.53
70217;BME280;65567;55.684;37.570;2023-11-19T01:58:32;99964.69;;;-3.60;53.73
70217;BME280;65567;55.684;37.570;2023-11-19T02:00:59;99969.78;;;-3.61;53.88
70217;BME280;65567;55.684;37.570;2023-11-19T02:03:25;99969.72;;;-3.63;53.98
70217;BME280;65567;55.684;37.570;2023-11-19T02:05:57;99971.41;;;-3.65;53.99
70217;BME280;65567;55.684;37.570;2023-11-19T02:08:26;99957.69;;;-3.69;53.96
70217;BME280;65567;55.684;37.570;2023-11-19T02:10:55;99971.41;;;-3.65;53.94
70217;BME280;65567;55.684;37.570;2023-11-19T02:13:28;99979.91;;;-3.68;53.98
70217;BME280;65567;55.684;37.570;2023-11-19T02:15:54;99974.81;;;-3.66;54.08
70217;BME280;65567;55.684;37.570;2023-11-19T02:18:30;99973.97;;;-3.67;54.25
70217;BME280;65567;55.684;37.570;2023-11-19T02:20:59;99969.63;;;-3.69;54.45
70217;BME280;65567;55.684;37.570;2023-11-19T02:23:27;99952.41;;;-3.76;54.46
70217;BME280;65567;55.684;37.570;2023-11-19T02:28:32;99962.78;;;-3.70;54.63
70217;BME280;65567;55.684;37.570;2023-11-19T02:30:58;99966.97;;;-3.74;54.75
70217;BME280;65567;55.684;37.570;2023-11-19T02:33:24;99965.25;;;-3.75;54.81
70217;BME280;65567;55.684;37.570;2023-11-19T02:35:53;99953.28;;;-3.76;54.80
70217;BME280;65567;55.684;37.570;2023-11-19T02:38:19;99963.50;;;-3.76;54.83
70217;BME280;65567;55.684;37.570;2023-11-19T02:40:47;99967.78;;;-3.76;54.92
70217;BME280;65567;55.684;37.570;2023-11-19T02:43:15;99953.22;;;-3.79;55.08
70217;BME280;65567;55.684;37.570;2023-11-19T02:45:40;99959.16;;;-3.82;55.17
70217;BME280;65567;55.684;37.570;2023-11-19T02:48:07;99955.75;;;-3.80;55.13
70217;BME280;65567;55.684;37.570;2023-11-19T02:50:34;99956.56;;;-3.83;55.35
70217;BME280;65567;55.684;37.570;2023-11-19T02:52:59;99955.75;;;-3.80;55.31
70217;BME280;65567;55.684;37.570;2023-11-19T02:55:26;99922.00;;;-4.07;55.35
70217;BME280;65567;55.684;37.570;2023-11-19T02:57:55;99959.16;;;-3.82;55.36
70217;BME280;65567;55.684;37.570;2023-11-19T03:00:24;99957.50;;;-3.79;55.25
70217;BME280;65567;55.684;37.570;2023-11-19T03:02:59;99959.16;;;-3.80;55.27
70217;BME280;65567;55.684;37.570;2023-11-19T03:05:33;99954.97;;;-3.78;55.31
70217;BME280;65567;55.684;37.570;2023-11-19T03:07:59;99955.09;;;-3.72;55.50
70217;BME280;65567;55.684;37.570;2023-11-19T03:10:25;99939.66;;;-3.75;55.52
70217;BME280;65567;55.684;37.570;2023-11-19T03:12:51;99938.19;;;-3.62;55.22
70217;BME280;65567;55.684;37.570;2023-11-19T03:15:17;99939.06;;;-3.61;55.11
70217;BME280;65567;55.684;37.570;2023-11-19T03:17:43;99932.22;;;-3.61;54.93
70217;BME280;65567;55.684;37.570;2023-11-19T03:20:11;99953.78;;;-3.48;54.87
70217;BME280;65567;55.684;37.570;2023-11-19T03:22:42;99944.50;;;-3.43;54.75
70217;BME280;65567;55.684;37.570;2023-11-19T03:25:12;99943.66;;;-3.42;54.73
70217;BME280;65567;55.684;37.570;2023-11-19T03:27:39;99941.31;;;-3.29;54.61
70217;BME280;65567;55.684;37.570;2023-11-19T03:30:08;99938.81;;;-3.26;54.38
70217;BME280;65567;55.684;37.570;2023-11-19T03:32:35;99939.78;;;-3.20;54.34
70217;BME280;65567;55.684;37.570;2023-11-19T03:35:02;99936.41;;;-3.16;54.09
70217;BME280;65567;55.684;37.570;2023-11-19T03:37:32;99949.34;;;-3.08;54.12
70217;BME280;65567;55.684;37.570;2023-11-19T03:39:59;99941.72;;;-3.03;53.88
70217;BME280;65567;55.684;37.570;2023-11-19T03:42:28;99931.56;;;-2.97;53.70
70217;BME280;65567;55.684;37.570;2023-11-19T03:44:56;99930.03;;;-2.86;53.79
70217;BME280;65567;55.684;37.570;2023-11-19T03:47:22;99899.09;;;-2.98;53.38
70217;BME280;65567;55.684;37.570;2023-11-19T03:49:51;99932.84;;;-2.69;53.23
70217;BME280;65567;55.684;37.570;2023-11-19T03:52:17;99926.94;;;-2.63;53.28
70217;BME280;65567;55.684;37.570;2023-11-19T03:54:44;99923.75;;;-2.45;53.27
70217;BME280;65567;55.684;37.570;2023-11-19T03:57:13;99923.88;;;-2.34;53.01
70217;BME280;65567;55.684;37.570;2023-11-19T03:59:41;99915.50;;;-2.22;52.61
70217;BME280;65567;55.684;37.570;2023-11-19T04:02:06;99888.13;;;-2.23;52.25
70217;BME280;65567;55.684;37.570;2023-11-19T04:04:35;99917.47;;;-2.00;52.06
70217;BME280;65567;55.684;37.570;2023-11-19T04:07:04;99908.09;;;-1.97;51.85
70217;BME280;65567;55.684;37.570;2023-11-19T04:09:30;99902.91;;;-2.02;50.52
70217;BME280;65567;55.684;37.570;2023-11-19T04:12:10;99892.44;;;-2.18;50.94
70217;BME280;65567;55.684;37.570;2023-11-19T04:14:39;99895.91;;;-2.17;51.24
70217;BME280;65567;55.684;37.570;2023-11-19T04:17:09;99885.66;;;-2.14;51.78
70217;BME280;65567;55.684;37.570;2023-11-19T04:19:35;99888.44;;;-1.94;51.45
70217;BME280;65567;55.684;37.570;2023-11-19T04:22:01;99887.66;;;-1.85;51.21
70217;BME280;65567;55.684;37.570;2023-11-19T04:24:30;99884.38;;;-1.73;51.17
70217;BME280;65567;55.684;37.570;2023-11-19T04:26:56;99870.69;;;-1.69;50.83
70217;BME280;65567;55.684;37.570;2023-11-19T04:29:27;99870.75;;;-1.68;51.01
70217;BME280;65567;55.684;37.570;2023-11-19T04:31:53;99881.16;;;-1.52;50.61
70217;BME280;65567;55.684;37.570;2023-11-19T04:34:19;99875.81;;;-1.71;51.25
70217;BME280;65567;55.684;37.570;2023-11-19T04:36:45;99878.53;;;-1.58;50.55
70217;BME280;65567;55.684;37.570;2023-11-19T04:39:17;99879.38;;;-1.59;50.78
70217;BME280;65567;55.684;37.570;2023-11-19T04:41:51;99887.97;;;-1.57;50.76
70217;BME280;65567;55.684;37.570;2023-11-19T04:44:19;99891.38;;;-1.57;50.13
70217;BME280;65567;55.684;37.570;2023-11-19T04:46:45;99886.28;;;-1.52;49.79
70217;BME280;65567;55.684;37.570;2023-11-19T04:49:12;99900.81;;;-1.54;49.71
70217;BME280;65567;55.684;37.570;2023-11-19T04:51:41;99896.25;;;-1.83;50.74
70217;BME280;65567;55.684;37.570;2023-11-19T04:54:08;99896.28;;;-1.81;50.84
70217;BME280;65567;55.684;37.570;2023-11-19T04:56:35;99892.69;;;-1.97;51.11
70217;BME280;65567;55.684;37.570;2023-11-19T04:59:04;99902.47;;;-1.62;49.89
70217;BME280;65567;55.684;37.570;2023-11-19T05:01:34;99890.53;;;-1.56;49.32
70217;BME280;65567;55.684;37.570;2023-11-19T05:04:00;99888.72;;;-1.68;49.35
70217;BME280;65567;55.684;37.570;2023-11-19T05:06:29;99880.97;;;-1.71;49.36
70217;BME280;65567;55.684;37.570;2023-11-19T05:08:59;99876.50;;;-1.89;49.55
70217;BME280;65567;55.684;37.570;2023-11-19T05:11:36;99897.88;;;-1.91;49.64
70217;BME280;65567;55.684;37.570;2023-11-19T05:14:05;99904.72;;;-1.93;49.19
70217;BME280;65567;55.684;37.570;2023-11-19T05:16:31;99911.34;;;-2.12;49.75
70217;BME280;65567;55.684;37.570;2023-11-19T05:18:57;99903.53;;;-2.20;49.82
70217;BME280;65567;55.684;37.570;2023-11-19T05:21:22;99914.63;;;-2.24;50.25
70217;BME280;65567;55.684;37.570;2023-11-19T05:23:49;99915.34;;;-2.33;50.34
70217;BME280;65567;55.684;37.570;2023-11-19T05:26:22;99911.06;;;-2.36;50.41
70217;BME280;65567;55.684;37.570;2023-11-19T05:28:49;99916.13;;;-2.42;50.81
70217;BME280;65567;55.684;37.570;2023-11-19T05:31:16;99922.75;;;-2.56;50.86
70217;BME280;65567;55.684;37.570;2023-11-19T05:33:43;99917.59;;;-2.59;50.77
70217;BME280;65567;55.684;37.570;2023-11-19T05:36:12;99920.38;;;-2.42;50.87
70217;BME280;65567;55.684;37.570;2023-11-19T05:38:38;99909.25;;;-2.43;51.00
70217;BME280;65567;55.684;37.570;2023-11-19T05:41:07;99916.25;;;-2.33;51.03
70217;BME280;65567;55.684;37.570;2023-11-19T05:43:33;99915.44;;;-2.27;51.01
70217;BME280;65567;55.684;37.570;2023-11-19T05:45:59;99908.75;;;-2.16;50.89
70217;BME280;65567;55.684;37.570;2023-11-19T05:48:26;99902.09;;;-1.98;50.10
70217;BME280;65567;55.684;37.570;2023-11-19T05:50:53;99909.84;;;-1.95;49.58
70217;BME280;65567;55.684;37.570;2023-11-19T05:53:26;99909.56;;;-2.18;49.29
70217;BME280;65567;55.684;37.570;2023-11-19T05:55:54;99914.41;;;-2.43;49.91
70217;BME280;65567;55.684;37.570;2023-11-19T05:58:25;99911.59;;;-2.60;50.31
70217;BME280;65567;55.684;37.570;2023-11-19T06:00:52;99911.53;;;-2.63;50.05
70217;BME280;65567;55.684;37.570;2023-11-19T06:03:18;99896.22;;;-2.58;49.69
70217;BME280;65567;55.684;37.570;2023-11-19T06:05:48;99911.75;;;-2.47;49.76
70217;BME280;65567;55.684;37.570;2023-11-19T06:08:14;99900.88;;;-2.29;49.19
70217;BME280;65567;55.684;37.570;2023-11-19T06:10:44;99909.50;;;-2.21;49.03
70217;BME280;65567;55.684;37.570;2023-11-19T06:13:12;99906.19;;;-2.14;49.09
70217;BME280;65567;55.684;37.570;2023-11-19T06:15:43;99906.03;;;-2.26;49.49
70217;BME280;65567;55.684;37.570;2023-11-19T06:18:10;99900.88;;;-2.29;49.33
70217;BME280;65567;55.684;37.570;2023-11-19T06:20:37;99898.31;;;-2.28;49.82
70217;BME280;65567;55.684;37.570;2023-11-19T06:23:03;99899.22;;;-2.24;50.14
70217;BME280;65567;55.684;37.570;2023-11-19T06:25:29;99901.72;;;-2.29;50.00
70217;BME280;65567;55.684;37.570;2023-11-19T06:27:55;99901.72;;;-2.30;50.36
70217;BME280;65567;55.684;37.570;2023-11-19T06:30:22;99909.38;;;-2.34;50.94
70217;BME280;65567;55.684;37.570;2023-11-19T06:32:47;99904.28;;;-2.30;50.90
70217;BME280;65567;55.684;37.570;2023-11-19T06:35:13;99897.47;;;-2.28;51.01
70217;BME280;65567;55.684;37.570;2023-11-19T06:37:40;99894.00;;;-2.30;50.33
70217;BME280;65567;55.684;37.570;2023-11-19T06:40:07;99899.13;;;-2.30;50.08
70217;BME280;65567;55.684;37.570;2023-11-19T06:42:35;99904.97;;;-2.42;50.69
70217;BME280;65567;55.684;37.570;2023-11-19T06:45:02;99887.94;;;-2.39;50.70
70217;BME280;65567;55.684;37.570;2023-11-19T06:47:28;99879.44;;;-2.32;50.26
70217;BME280;65567;55.684;37.570;2023-11-19T06:49:55;99887.19;;;-2.30;49.61
70217;BME280;65567;55.684;37.570;2023-11-19T06:52:21;99860.53;;;-2.43;50.30
70217;BME280;65567;55.684;37.570;2023-11-19T06:54:47;99881.06;;;-2.41;51.13
70217;BME280;65567;55.684;37.570;2023-11-19T06:57:16;99879.63;;;-2.16;50.43
70217;BME280;65567;55.684;37.570;2023-11-19T06:59:42;99890.88;;;-2.08;50.78
70217;BME280;65567;55.684;37.570;2023-11-19T07:02:14;99889.13;;;-2.12;50.57
70217;BME280;65567;55.684;37.570;2023-11-19T07:04:40;99818.41;;;-2.59;50.75
70217;BME280;65567;55.684;37.570;2023-11-19T07:07:08;99880.53;;;-2.14;50.59
70217;BME280;65567;55.684;37.570;2023-11-19T07:09:35;99890.88;;;-2.08;51.26
70217;BME280;65567;55.684;37.570;2023-11-19T07:12:04;99886.41;;;-2.24;51.88
70217;BME280;65567;55.684;37.570;2023-11-19T07:14:30;99889.56;;;-2.44;52.11
70217;BME280;65567;55.684;37.570;2023-11-19T07:16:56;99894.81;;;-2.35;51.79
70217;BME280;65567;55.684;37.570;2023-11-19T07:19:24;99899.44;;;-2.04;51.33
70217;BME280;65567;55.684;37.570;2023-11-19T07:21:50;99890.28;;;-1.82;50.99
70217;BME280;65567;55.684;37.570;2023-11-19T07:24:16;99889.63;;;-1.62;50.49
70217;BME280;65567;55.684;37.570;2023-11-19T07:26:43;99881.00;;;-1.68;50.69
70217;BME280;65567;55.684;37.570;2023-11-19T07:29:15;99890.88;;;-1.09;49.82
70217;BME280;65567;55.684;37.570;2023-11-19T07:31:42;99896.03;;;-1.11;49.90
70217;BME280;65567;55.684;37.570;2023-11-19T07:34:10;99893.56;;;-0.98;49.57
70217;BME280;65567;55.684;37.570;2023-11-19T07:36:37;99895.31;;;-0.93;49.12
70217;BME280;65567;55.684;37.570;2023-11-19T07:39:04;99890.09;;;-1.04;49.80
70217;BME280;65567;55.684;37.570;2023-11-19T07:41:31;99890.69;;;-1.36;50.28
70217;BME280;65567;55.684;37.570;2023-11-19T07:43:56;99890.59;;;-1.48;50.82
70217;BME280;65567;55.684;37.570;2023-11-19T07:46:22;99867.28;;;-1.67;51.26
70217;BME280;65567;55.684;37.570;2023-11-19T07:48:48;99884.50;;;-1.59;51.15
70217;BME280;65567;55.684;37.570;2023-11-19T07:51:14;99880.19;;;-1.63;51.30
70217;BME280;65567;55.684;37.570;2023-11-19T07:53:41;99880.97;;;-1.71;50.64
70217;BME280;65567;55.684;37.570;2023-11-19T07:56:11;99887.84;;;-1.68;50.23
70217;BME280;65567;55.684;37.570;2023-11-19T07:58:37;99894.16;;;-1.34;49.71
70217;BME280;65567;55.684;37.570;2023-11-19T08:01:03;99884.91;;;-1.10;49.17
70217;BME280;65567;55.684;37.570;2023-11-19T08:03:29;99874.63;;;-1.10;49.27
70217;BME280;65567;55.684;37.570;2023-11-19T08:06:00;99873.72;;;-1.20;49.28
70217;BME280;65567;55.684;37.570;2023-11-19T08:08:30;99870.06;;;-1.48;49.75
70217;BME280;65567;55.684;37.570;2023-11-19T08:10:58;99869.34;;;-1.25;49.66
70217;BME280;65567;55.684;37.570;2023-11-19T08:13:24;99874.53;;;-1.22;49.67
70217;BME280;65567;55.684;37.570;2023-11-19T08:15:50;99872.88;;;-1.11;49.45
70217;BME280;65567;55.684;37.570;2023-11-19T08:18:19;99871.38;;;-0.79;49.01
70217;BME280;65567;55.684;37.570;2023-11-19T08:20:48;99871.31;;;-0.93;48.65
70217;BME280;65567;55.684;37.570;2023-11-19T08:23:18;99827.50;;;-1.06;48.55
70217;BME280;65567;55.684;37.570;2023-11-19T08:25:44;99870.59;;;-0.68;48.04
70217;BME280;65567;55.684;37.570;2023-11-19T08:28:10;99857.78;;;-0.52;47.52
70217;BME280;65567;55.684;37.570;2023-11-19T08:30:36;99845.13;;;0.08;49.93
70217;BME280;65567;55.684;37.570;2023-11-19T08:33:01;99809.91;;;-0.04;48.98
70217;BME280;65567;55.684;37.570;2023-11-19T08:35:31;99837.41;;;0.28;49.32
70217;BME280;65567;55.684;37.570;2023-11-19T08:37:57;99846.88;;;0.62;48.73
70217;BME280;65567;55.684;37.570;2023-11-19T08:40:24;99846.88;;;0.74;48.00
70217;BME280;65567;55.684;37.570;2023-11-19T08:42:51;99849.47;;;0.42;46.68
70217;BME280;65567;55.684;37.570;2023-11-19T08:45:17;99857.16;;;0.28;47.33
70217;BME280;65567;55.684;37.570;2023-11-19T08:47:43;99849.47;;;0.60;45.72
70217;BME280;65567;55.684;37.570;2023-11-19T08:50:11;99852.88;;;0.31;45.74
70217;BME280;65567;55.684;37.570;2023-11-19T08:52:37;99850.28;;;0.08;46.66
70217;BME280;65567;55.684;37.570;2023-11-19T08:55:04;99853.72;;;0.04;46.40
70217;BME280;65567;55.684;37.570;2023-11-19T08:57:35;99855.38;;;-0.17;45.98
70217;BME280;65567;55.684;37.570;2023-11-19T09:00:01;99860.47;;;-0.32;46.48
70217;BME280;65567;55.684;37.570;2023-11-19T09:02:28;99856.19;;;-0.27;46.30
70217;BME280;65567;55.684;37.570;2023-11-19T09:04:54;99863.09;;;-0.12;46.45
70217;BME280;65567;55.684;37.570;2023-11-19T09:07:23;99819.38;;;0.21;45.43
70217;BME280;65567;55.684;37.570;2023-11-19T09:09:50;99845.13;;;0.16;45.78
70217;BME280;65567;55.684;37.570;2023-11-19T09:12:16;99842.56;;;0.44;44.86
70217;BME280;65567;55.684;37.570;2023-11-19T09:14:41;99839.13;;;0.26;45.18
70217;BME280;65567;55.684;37.570;2023-11-19T09:17:07;99799.63;;;0.12;45.41
70217;BME280;65567;55.684;37.570;2023-11-19T09:19:34;99831.38;;;0.23;45.58
70217;BME280;65567;55.684;37.570;2023-11-19T09:22:01;99834.00;;;0.57;44.65
70217;BME280;65567;55.684;37.570;2023-11-19T09:24:29;99830.53;;;0.23;44.86
70217;BME280;65567;55.684;37.570;2023-11-19T09:27:05;99825.34;;;0.03;44.81
70217;BME280;65567;55.684;37.570;2023-11-19T09:29:33;99818.50;;;0.02;44.72
70217;BME280;65567;55.684;37.570;2023-11-19T09:31:59;99821.09;;;0.17;44.47
70217;BME280;65567;55.684;37.570;2023-11-19T09:34:25;99813.38;;;0.29;42.96
70217;BME280;65567;55.684;37.570;2023-11-19T09:36:51;99819.38;;;0.07;42.88
70217;BME280;65567;55.684;37.570;2023-11-19T09:39:17;99809.88;;;-0.16;42.59
70217;BME280;65567;55.684;37.570;2023-11-19T09:41:49;99806.38;;;-0.40;43.02
70217;BME280;65567;55.684;37.570;2023-11-19T09:44:15;99806.38;;;-0.40;43.84
70217;BME280;65567;55.684;37.570;2023-11-19T09:46:44;99809.81;;;-0.35;42.96
70217;BME280;65567;55.684;37.570;2023-11-19T09:49:10;99802.06;;;-0.53;43.18
70217;BME280;65567;55.684;37.570;2023-11-19T09:51:37;99795.97;;;-0.72;43.73
70217;BME280;65567;55.684;37.570;2023-11-19T09:54:03;99791.69;;;-0.69;43.08
70217;BME280;65567;55.684;37.570;2023-11-19T09:56:31;99787.34;;;-0.85;43.30
70217;BME280;65567;55.684;37.570;2023-11-19T09:58:59;99788.97;;;-1.00;44.32
70217;BME280;65567;55.684;37.570;2023-11-19T10:01:25;99794.97;;;-1.01;44.51
70217;BME280;65567;55.684;37.570;2023-11-19T10:03:52;99790.66;;;-1.02;44.44
70217;BME280;65567;55.684;37.570;2023-11-19T10:06:20;99772.75;;;-0.86;43.43
70217;BME280;65567;55.684;37.570;2023-11-19T10:08:47;99771.81;;;-0.99;43.49
70217;BME280;65567;55.684;37.570;2023-11-19T10:11:12;99758.97;;;-1.05;43.53
70217;BME280;65567;55.684;37.570;2023-11-19T10:13:38;99782.09;;;-1.04;43.43
70217;BME280;65567;55.684;37.570;2023-11-19T10:16:08;99768.31;;;-1.15;43.32
70217;BME280;65567;55.684;37.570;2023-11-19T10:18:34;99770.75;;;-1.37;43.96
70217;BME280;65567;55.684;37.570;2023-11-19T10:21:09;99778.56;;;-1.24;44.58
70217;BME280;65567;55.684;37.570;2023-11-19T10:23:52;99768.31;;;-1.18;44.61
70217;BME280;65567;55.684;37.570;2023-11-19T10:26:20;99764.09;;;-1.05;43.71
70217;BME280;65567;55.684;37.570;2023-11-19T10:28:49;99770.06;;;-1.14;44.52
70217;BME280;65567;55.684;37.570;2023-11-19T10:31:18;99766.59;;;-1.16;44.72
70217;BME280;65567;55.684;37.570;2023-11-19T10:33:45;99758.75;;;-1.41;45.06
70217;BME280;65567;55.684;37.570;2023-11-19T10:36:17;99761.47;;;-1.19;44.85
70217;BME280;65567;55.684;37.570;2023-11-19T10:38:53;99771.72;;;-1.22;44.92
70217;BME280;65567;55.684;37.570;2023-11-19T10:41:32;99767.53;;;-1.03;45.28
70217;BME280;65567;55.684;37.570;2023-11-19T10:44:01;99759.78;;;-1.11;45.23
70217;BME280;65567;55.684;37.570;2023-11-19T10:46:37;99772.75;;;-0.85;44.95
70217;BME280;65567;55.684;37.570;2023-11-19T10:49:04;99770.28;;;-0.52;43.48
70217;BME280;65567;55.684;37.570;2023-11-19T10:51:32;99768.56;;;-0.59;44.27
70217;BME280;65567;55.684;37.570;2023-11-19T10:54:05;99757.44;;;-0.44;44.11
70217;BME280;65567;55.684;37.570;2023-11-19T10:56:32;99764.34;;;-0.39;42.90
70217;BME280;65567;55.684;37.570;2023-11-19T10:58:59;99760.91;;;-0.42;42.69
70217;BME280;65567;55.684;37.570;2023-11-19T11:01:42;99763.47;;;-0.53;42.79
70217;BME280;65567;55.684;37.570;2023-11-19T11:04:14;99750.59;;;-0.53;42.88
70217;BME280;65567;55.684;37.570;2023-11-19T11:06:43;99756.56;;;-0.60;42.93
70217;BME280;65567;55.684;37.570;2023-11-19T11:09:10;99765.09;;;-0.71;43.97
70217;BME280;65567;55.684;37.570;2023-11-19T11:11:40;99759.03;;;-0.82;44.81
70217;BME280;65567;55.684;37.570;2023-11-19T11:14:12;99758.03;;;-1.17;44.99
70217;BME280;65567;55.684;37.570;2023-11-19T11:16:43;99760.69;;;-1.00;44.79
70217;BME280;65567;55.684;37.570;2023-11-19T11:19:10;99760.69;;;-0.96;44.84
70217;BME280;65567;55.684;37.570;2023-11-19T11:21:41;99754.00;;;-0.54;44.35
70217;BME280;65567;55.684;37.570;2023-11-19T11:37:46;99751.50;;;-0.26;43.22
70217;BME280;65567;55.684;37.570;2023-11-19T11:40:16;99743.78;;;-0.20;43.14
70217;BME280;65567;55.684;37.570;2023-11-19T11:42:44;99745.47;;;-0.22;42.92
70217;BME280;65567;55.684;37.570;2023-11-19T11:45:11;99741.19;;;-0.37;42.45
70217;BME280;65567;55.684;37.570;2023-11-19T11:50:17;99748.72;;;-0.91;42.81
70217;BME280;65567;55.684;37.570;2023-11-19T11:55:55;99748.84;;;-0.60;42.42
70217;BME280;65567;55.684;37.570;2023-11-19T11:58:28;99737.72;;;-0.62;42.35
70217;BME280;65567;55.684;37.570;2023-11-19T12:00:58;99740.28;;;-0.58;42.39
70217;BME280;65567;55.684;37.570;2023-11-19T12:03:27;99746.22;;;-0.76;42.61
70217;BME280;65567;55.684;37.570;2023-11-19T12:05:54;99748.78;;;-0.77;42.54
70217;BME280;65567;55.684;37.570;2023-11-19T12:08:25;99736.75;;;-0.91;43.00
70217;BME280;65567;55.684;37.570;2023-11-19T12:10:55;99741.97;;;-0.61;42.18
70217;BME280;65567;55.684;37.570;2023-11-19T12:13:29;99731.69;;;-0.54;41.87
70217;BME280;65567;55.684;37.570;2023-11-19T12:16:08;99728.28;;;-0.50;41.87
70217;BME280;65567;55.684;37.570;2023-11-19T12:18:35;99727.41;;;-0.56;41.48
70217;BME280;65567;55.684;37.570;2023-11-19T12:21:01;99738.50;;;-0.80;41.88
70217;BME280;65567;55.684;37.570;2023-11-19T12:23:31;99725.44;;;-1.25;43.68
70217;BME280;65567;55.684;37.570;2023-11-19T12:25:58;99696.13;;;-1.58;44.12
70217;BME280;65567;55.684;37.570;2023-11-19T12:28:24;99727.25;;;-1.06;42.93
70217;BME280;65567;55.684;37.570;2023-11-19T12:30:52;99724.66;;;-1.09;42.55
70217;BME280;65567;55.684;37.570;2023-11-19T12:33:18;99725.47;;;-1.18;42.60
70217;BME280;65567;55.684;37.570;2023-11-19T12:35:48;99725.13;;;-1.78;44.91
70217;BME280;65567;55.684;37.570;2023-11-19T12:38:24;99727.75;;;-1.64;45.61
70217;BME280;65567;55.684;37.570;2023-11-19T12:41:09;99727.84;;;-1.55;45.28
70217;BME280;65567;55.684;37.570;2023-11-19T12:43:39;99724.19;;;-1.86;45.49
70217;BME280;65567;55.684;37.570;2023-11-19T12:46:22;99720.00;;;-1.75;45.35
70217;BME280;65567;55.684;37.570;2023-11-19T12:48:49;99708.88;;;-1.72;45.23
70217;BME280;65567;55.684;37.570;2023-11-19T12:51:15;99710.00;;;-1.27;44.21
70217;BME280;65567;55.684;37.570;2023-11-19T12:53:51;99705.63;;;-1.50;44.74
70217;BME280;65567;55.684;37.570;2023-11-19T12:56:20;99709.88;;;-1.50;44.57
70217;BME280;65567;55.684;37.570;2023-11-19T12:58:46;99702.22;;;-1.44;44.50
70217;BME280;65567;55.684;37.570;2023-11-19T13:01:16;99691.00;;;-1.55;44.75
70217;BME280;65567;55.684;37.570;2023-11-19T13:03:43;99699.72;;;-1.25;44.29
70217;BME280;65567;55.684;37.570;2023-11-19T13:06:13;99695.47;;;-1.17;43.66
70217;BME280;65567;55.684;37.570;2023-11-19T13:08:43;99696.19;;;-1.46;44.85
70217;BME280;65567;55.684;37.570;2023-11-19T13:11:14;99691.06;;;-1.49;45.21
70217;BME280;65567;55.684;37.570;2023-11-19T13:13:59;99685.97;;;-1.40;45.32
70217;BME280;65567;55.684;37.570;2023-11-19T13:16:26;99654.31;;;-1.28;43.83